Zanesville, Ohio
Current Conditions -  °F | °C
As of 5:53 PM on Thursday 27 Nov 2014 (Local Time) from KZZV Reporting Station
Overcast Overcast  
Wind Chill: 23°   Ceiling: 11000
Heat Index: 30°   Visibility: 10mi
Dew Point: 21°   Wind: 7mph
Humidity: 69%   Direction: 260°W
Pressure: 30.24"   Gusts: NA
Location:  39.94°N, 82°W
Report Text: KZZV 272253Z AUTO 26006KT 10SM SCT060 OVC110 M01/M06 A3024 RMK AO2 SLP251 T10111061
Loading
Personal Weather Stations






























Interactive Weather Map New forecast layout! Learn more

10-Day Weather Forecast

Advertisements
Track Severe Weather on mobile